HTZA/ZNZ METAR and TAF weather

Enter ICAO airport designator
Station Type Date Time Source
HTZA METAR 2022/06/25 14:00 UTC NOAA

HTZA 251400Z 14013KT 9999 FEW021 28/19 Q1015 NOSIG


Station Type Date Time Source
HTZA Decoded METAR 2022/06/25 14:00 UTC NOAA

Zanzibar / Kisauni, Tanzania (HTZA) 06-13S 039-13E 15M
Jun 25, 2022 - 10:00 AM EDT / 2022.06.25 1400 UTC
Wind: from the SE (140 degrees) at 15 MPH (13 KT):0
Visibility: greater than 7 mile(s):0
Sky conditions: mostly clear
Temperature: 82 F (28 C)
Dew Point: 66 F (19 C)
Relative Humidity: 58%
Pressure (altimeter): 29.97 in. Hg (1015 hPa)
ob: HTZA 251400Z 14013KT 9999 FEW021 28/19 Q1015 NOSIG
cycle: 14

Station Type Date Time Source
HTZA TAF 2022/06/25 18:27 UTC NOAA

HTZA 241700Z 2418/2518 15010KT 9999 FEW016
BECMG 2503/2505 21010KT SCT018
BECMG 2510/2512 15015KT

Example: see airport list